createdAt,value
2018-12-16T00:00:19.837Z,21.81
2018-12-16T00:01:29.881Z,21.40
2018-12-16T00:02:31.002Z,22.01
2018-12-16T00:03:32.141Z,21.80
2018-12-16T00:04:33.266Z,21.60
2018-12-16T00:05:34.386Z,22.08
2018-12-16T00:06:35.649Z,22.03
2018-12-16T00:07:36.769Z,21.83
2018-12-16T00:08:37.886Z,21.64
2018-12-16T00:09:39.009Z,21.92
2018-12-16T00:10:40.133Z,21.44
2018-12-16T00:11:41.266Z,21.41
2018-12-16T00:12:42.398Z,21.98
2018-12-16T00:13:43.509Z,21.68
2018-12-16T00:14:44.630Z,21.82
2018-12-16T00:15:45.782Z,21.96
2018-12-16T00:16:46.898Z,21.84
2018-12-16T00:17:48.034Z,21.96
2018-12-16T00:18:49.147Z,21.58
2018-12-16T00:19:50.264Z,21.79
2018-12-16T00:20:51.398Z,21.89
2018-12-16T00:21:52.603Z,21.79
2018-12-16T00:22:54.157Z,22.01
2018-12-16T00:24:02.107Z,21.68
2018-12-16T00:25:04.806Z,21.54
2018-12-16T00:26:05.979Z,21.51
2018-12-16T00:27:08.857Z,21.61
2018-12-16T00:28:09.969Z,21.79
2018-12-16T00:29:11.085Z,21.73
2018-12-16T00:30:12.249Z,22.06
2018-12-16T00:31:13.374Z,21.59
2018-12-16T00:32:14.514Z,22.03
2018-12-16T00:33:15.628Z,21.59
2018-12-16T00:34:16.733Z,21.93
2018-12-16T00:35:17.853Z,21.68
2018-12-16T00:36:18.982Z,21.51
2018-12-16T00:37:20.130Z,21.48
2018-12-16T00:38:21.260Z,21.84
2018-12-16T00:39:22.385Z,21.89
2018-12-16T00:40:23.517Z,21.73
2018-12-16T00:41:24.673Z,22.01
2018-12-16T00:42:25.782Z,21.48
2018-12-16T00:43:26.906Z,21.56
2018-12-16T00:44:28.041Z,22.07
2018-12-16T00:45:36.176Z,22.31
2018-12-16T00:46:37.292Z,21.92
2018-12-16T00:47:38.417Z,21.74
2018-12-16T00:48:39.537Z,21.74
2018-12-16T00:49:40.642Z,21.74
2018-12-16T00:50:41.761Z,21.94
2018-12-16T00:51:42.913Z,22.39
2018-12-16T00:52:44.053Z,22.27
2018-12-16T00:53:45.210Z,22.23
2018-12-16T00:54:46.337Z,22.09
2018-12-16T00:55:47.497Z,22.28
2018-12-16T00:56:48.637Z,22.19
2018-12-16T00:57:49.754Z,22.29
2018-12-16T00:58:50.870Z,22.45
2018-12-16T00:59:51.986Z,22.22
2018-12-16T01:00:53.117Z,21.96
2018-12-16T01:01:54.239Z,21.87
2018-12-16T01:02:55.361Z,22.11
2018-12-16T01:03:56.466Z,22.21
2018-12-16T01:04:57.599Z,22.25
2018-12-16T01:05:58.985Z,22.12
2018-12-16T01:07:00.235Z,22.25
2018-12-16T01:08:01.361Z,21.90
2018-12-16T01:09:04.357Z,21.85
2018-12-16T01:10:07.135Z,22.04
2018-12-16T01:11:08.285Z,21.74
2018-12-16T01:12:09.537Z,22.15
2018-12-16T01:13:17.573Z,21.93
2018-12-16T01:14:18.744Z,21.90
2018-12-16T01:15:19.873Z,21.68
2018-12-16T01:16:21.361Z,22.21
2018-12-16T01:17:22.473Z,22.13
2018-12-16T01:18:30.398Z,21.63
2018-12-16T01:19:31.525Z,22.05
2018-12-16T01:20:32.669Z,21.79
2018-12-16T01:21:34.135Z,21.83
2018-12-16T01:22:35.273Z,21.94
2018-12-16T01:23:36.409Z,22.02
2018-12-16T01:24:37.662Z,21.61
2018-12-16T01:25:38.777Z,21.79
2018-12-16T01:26:40.268Z,21.55
2018-12-16T01:27:41.389Z,21.67
2018-12-16T01:28:42.525Z,22.13
2018-12-16T01:29:43.651Z,21.99
2018-12-16T01:30:44.791Z,22.02
2018-12-16T01:31:46.239Z,21.59
2018-12-16T01:32:47.370Z,21.98
2018-12-16T01:33:48.493Z,21.78
2018-12-16T01:34:49.608Z,21.95
2018-12-16T01:35:50.736Z,21.79
2018-12-16T01:36:51.870Z,21.66
2018-12-16T01:37:52.985Z,21.52
2018-12-16T01:38:54.113Z,21.54
2018-12-16T01:39:55.261Z,21.56
2018-12-16T01:40:56.438Z,22.12
2018-12-16T01:41:57.846Z,21.98
2018-12-16T01:42:58.968Z,21.88
2018-12-16T01:44:00.085Z,22.14
2018-12-16T01:45:01.230Z,21.81
2018-12-16T01:46:02.357Z,22.03
2018-12-16T01:47:03.771Z,22.03
2018-12-16T01:48:04.886Z,21.63
2018-12-16T01:49:06.014Z,21.69
2018-12-16T01:50:07.147Z,22.03
2018-12-16T01:51:08.253Z,21.53
2018-12-16T01:52:09.738Z,21.80
2018-12-16T01:53:10.844Z,21.44
2018-12-16T01:54:11.998Z,21.56
2018-12-16T01:55:13.149Z,21.47
2018-12-16T01:56:14.297Z,21.51
2018-12-16T01:57:15.825Z,21.73
2018-12-16T01:58:16.942Z,22.11
2018-12-16T01:59:18.058Z,21.79
2018-12-16T02:00:19.312Z,21.89
2018-12-16T02:01:20.450Z,22.21
2018-12-16T02:02:21.569Z,21.78
2018-12-16T02:03:22.701Z,22.05
2018-12-16T02:04:23.833Z,21.93
2018-12-16T02:05:24.965Z,21.93
2018-12-16T02:06:26.077Z,21.95
2018-12-16T02:07:27.568Z,21.76
2018-12-16T02:08:28.699Z,22.16
2018-12-16T02:09:29.837Z,22.20
2018-12-16T02:10:30.986Z,22.08
2018-12-16T02:11:32.135Z,22.00
2018-12-16T02:12:33.637Z,21.79
2018-12-16T02:13:34.771Z,22.11
2018-12-16T02:14:35.893Z,21.74
2018-12-16T02:15:37.035Z,21.95
2018-12-16T02:16:38.162Z,21.87
2018-12-16T02:17:39.574Z,22.17
2018-12-16T02:18:40.701Z,21.70
2018-12-16T02:19:41.833Z,21.84
2018-12-16T02:20:42.949Z,22.12
2018-12-16T02:21:44.077Z,21.71
2018-12-16T02:22:45.481Z,21.98
2018-12-16T02:23:53.701Z,21.66
2018-12-16T02:24:54.827Z,22.02
2018-12-16T02:25:55.953Z,21.73
2018-12-16T02:26:57.109Z,21.63
2018-12-16T02:27:58.637Z,21.82
2018-12-16T02:28:59.761Z,21.73
2018-12-16T02:30:00.893Z,21.39
2018-12-16T02:31:02.139Z,21.53
2018-12-16T02:32:03.277Z,21.46
2018-12-16T02:33:04.746Z,21.88
2018-12-16T02:34:05.865Z,21.48
2018-12-16T02:35:07.017Z,21.52
2018-12-16T02:36:08.150Z,21.85
2018-12-16T02:37:09.286Z,21.54
2018-12-16T02:38:10.699Z,22.22
2018-12-16T02:39:11.815Z,21.75
2018-12-16T02:40:12.991Z,21.78
2018-12-16T02:41:14.101Z,21.64
2018-12-16T02:42:15.205Z,21.60
2018-12-16T02:43:16.670Z,21.72
2018-12-16T02:44:17.802Z,21.33
2018-12-16T02:45:19.439Z,21.49
2018-12-16T02:46:20.678Z,21.46
2018-12-16T02:47:28.690Z,21.41
2018-12-16T02:48:30.112Z,21.34
2018-12-16T02:49:31.249Z,21.91
2018-12-16T02:50:32.365Z,21.97
2018-12-16T02:51:33.481Z,21.84
2018-12-16T02:52:34.598Z,21.68
2018-12-16T02:53:36.078Z,21.93
2018-12-16T02:54:37.210Z,21.39
2018-12-16T02:55:38.346Z,21.89
2018-12-16T02:56:39.471Z,21.43
2018-12-16T02:57:40.675Z,21.81
2018-12-16T02:58:42.103Z,21.84
2018-12-16T02:59:43.238Z,21.33
2018-12-16T03:00:44.391Z,21.39
2018-12-16T03:01:47.074Z,21.90
2018-12-16T03:02:48.217Z,21.36
2018-12-16T03:03:49.625Z,21.79
2018-12-16T03:04:50.767Z,21.47
2018-12-16T03:05:51.878Z,21.41
2018-12-16T03:06:53.126Z,21.62
2018-12-16T03:07:54.246Z,21.35
2018-12-16T03:08:55.637Z,21.31
2018-12-16T03:09:56.750Z,21.58
2018-12-16T03:10:57.890Z,21.83
2018-12-16T03:11:59.019Z,21.99
2018-12-16T03:13:00.185Z,22.13
2018-12-16T03:14:01.633Z,22.21
2018-12-16T03:15:03.009Z,21.58
2018-12-16T03:16:04.137Z,21.76
2018-12-16T03:17:05.256Z,21.60
2018-12-16T03:18:06.379Z,21.98
2018-12-16T03:19:07.813Z,21.98
2018-12-16T03:20:08.966Z,21.67
2018-12-16T03:21:10.090Z,21.75
2018-12-16T03:22:11.222Z,21.94
2018-12-16T03:23:12.681Z,22.01
2018-12-16T03:24:14.198Z,21.50
2018-12-16T03:25:15.323Z,22.10
2018-12-16T03:26:16.481Z,21.58
2018-12-16T03:27:17.614Z,21.85
2018-12-16T03:28:18.733Z,21.40
2018-12-16T03:29:20.166Z,22.03
2018-12-16T03:30:23.346Z,22.07
2018-12-16T03:31:24.449Z,21.69
2018-12-16T03:32:25.579Z,22.17
2018-12-16T03:33:26.728Z,21.67
2018-12-16T03:34:28.250Z,21.44
2018-12-16T03:35:29.373Z,21.29
2018-12-16T03:36:30.483Z,21.47
2018-12-16T03:37:31.657Z,21.42
2018-12-16T03:38:32.786Z,21.76
2018-12-16T03:39:34.202Z,21.74
2018-12-16T03:40:35.329Z,21.85
2018-12-16T03:41:36.454Z,21.46
2018-12-16T03:42:37.570Z,21.78
2018-12-16T03:43:38.692Z,21.83
2018-12-16T03:44:40.137Z,21.82
2018-12-16T03:45:41.245Z,21.90
2018-12-16T03:46:42.367Z,21.92
2018-12-16T03:47:43.481Z,21.96
2018-12-16T03:48:44.601Z,21.18
2018-12-16T03:49:46.038Z,21.90
2018-12-16T03:50:47.170Z,21.40
2018-12-16T03:51:48.289Z,21.85
2018-12-16T03:52:49.409Z,21.84
2018-12-16T03:53:50.527Z,21.93
2018-12-16T03:54:52.003Z,21.64
2018-12-16T03:55:53.272Z,21.91
2018-12-16T03:56:54.386Z,22.04
2018-12-16T03:57:55.497Z,21.56
2018-12-16T03:59:10.637Z,21.93
2018-12-16T04:00:12.085Z,21.79
2018-12-16T04:01:13.231Z,21.81
2018-12-16T04:02:14.361Z,21.92
2018-12-16T04:03:15.495Z,21.66
2018-12-16T04:04:16.654Z,21.69
2018-12-16T04:05:18.166Z,21.80
2018-12-16T04:06:19.306Z,21.56
2018-12-16T04:07:20.432Z,21.88
2018-12-16T04:08:21.565Z,21.63
2018-12-16T04:09:22.682Z,21.40
2018-12-16T04:10:24.152Z,21.86
2018-12-16T04:11:32.223Z,21.51
2018-12-16T04:12:33.366Z,21.64
2018-12-16T04:13:34.495Z,21.42
2018-12-16T04:14:35.633Z,21.88
2018-12-16T04:15:36.855Z,21.71
2018-12-16T04:16:38.141Z,21.29
2018-12-16T04:17:39.249Z,21.54
2018-12-16T04:18:40.401Z,21.98
2018-12-16T04:19:41.549Z,22.04
2018-12-16T04:20:42.965Z,21.36
2018-12-16T04:21:44.113Z,21.70
2018-12-16T04:22:45.239Z,21.61
2018-12-16T04:23:46.459Z,21.60
2018-12-16T04:24:47.570Z,21.92
2018-12-16T04:25:49.034Z,22.04
2018-12-16T04:26:50.174Z,21.83
2018-12-16T04:27:58.257Z,21.58
2018-12-16T04:28:59.382Z,21.98
2018-12-16T04:30:00.516Z,21.74
2018-12-16T04:31:01.905Z,21.86
2018-12-16T04:32:03.050Z,21.78
2018-12-16T04:33:04.186Z,22.11
2018-12-16T04:34:05.333Z,21.67
2018-12-16T04:35:06.483Z,21.58
2018-12-16T04:36:07.883Z,21.71
2018-12-16T04:37:09.013Z,21.64
2018-12-16T04:38:10.142Z,21.52
2018-12-16T04:39:11.253Z,21.77
2018-12-16T04:40:12.397Z,21.27
2018-12-16T04:41:13.819Z,21.93
2018-12-16T04:42:14.930Z,21.65
2018-12-16T04:43:16.060Z,21.37
2018-12-16T04:44:17.183Z,21.50
2018-12-16T04:45:18.311Z,21.96
2018-12-16T04:46:19.791Z,21.51
2018-12-16T04:47:20.898Z,21.86
2018-12-16T04:48:22.074Z,21.50
2018-12-16T04:49:23.324Z,21.53
2018-12-16T04:50:24.445Z,21.88
2018-12-16T04:51:25.969Z,21.48
2018-12-16T04:52:27.083Z,21.30
2018-12-16T04:53:34.843Z,21.45
2018-12-16T04:54:31.357Z,21.60
2018-12-16T04:55:32.491Z,21.56
2018-12-16T04:56:33.931Z,21.91
2018-12-16T04:57:35.049Z,21.70
2018-12-16T04:58:36.191Z,21.88
2018-12-16T04:59:37.309Z,21.42
2018-12-16T05:00:38.459Z,21.70
2018-12-16T05:01:39.657Z,21.30
2018-12-16T05:02:40.914Z,21.46
2018-12-16T05:03:42.020Z,21.63
2018-12-16T05:04:43.152Z,21.52
2018-12-16T05:05:44.273Z,21.54
2018-12-16T05:06:45.805Z,21.48
2018-12-16T05:07:47.665Z,21.74
2018-12-16T05:08:48.799Z,21.76
2018-12-16T05:09:49.925Z,21.47
2018-12-16T05:10:51.057Z,21.75
2018-12-16T05:11:52.465Z,21.42
2018-12-16T05:12:53.600Z,21.48
2018-12-16T05:13:54.728Z,21.67
2018-12-16T05:14:55.853Z,21.95
2018-12-16T05:16:03.875Z,21.35
2018-12-16T05:17:05.375Z,21.84
2018-12-16T05:18:06.505Z,21.60
2018-12-16T05:19:07.630Z,21.52
2018-12-16T05:20:08.793Z,21.48
2018-12-16T05:21:09.911Z,21.42
2018-12-16T05:22:11.377Z,21.60
2018-12-16T05:23:12.522Z,21.92
2018-12-16T05:24:13.639Z,21.91
2018-12-16T05:25:14.766Z,21.93
2018-12-16T05:26:15.893Z,21.86
2018-12-16T05:27:17.317Z,21.79
2018-12-16T05:28:18.425Z,21.75
2018-12-16T05:29:19.594Z,21.47
2018-12-16T05:30:20.729Z,21.29
2018-12-16T05:31:21.869Z,21.86
2018-12-16T05:32:23.425Z,21.76
2018-12-16T05:33:24.534Z,21.68
2018-12-16T05:34:25.653Z,21.96
2018-12-16T05:35:26.774Z,21.94
2018-12-16T05:36:27.870Z,21.64
2018-12-16T05:37:29.393Z,21.80
2018-12-16T05:38:30.517Z,22.18
2018-12-16T05:39:31.633Z,21.83
2018-12-16T05:40:32.737Z,21.67
2018-12-16T05:41:33.869Z,22.07
2018-12-16T05:42:35.362Z,21.41
2018-12-16T05:43:36.489Z,21.35
2018-12-16T05:44:37.620Z,21.51
2018-12-16T05:45:38.761Z,22.16
2018-12-16T05:46:39.890Z,21.84
2018-12-16T05:47:41.325Z,21.71
2018-12-16T05:48:42.445Z,21.68
2018-12-16T05:49:43.723Z,22.01
2018-12-16T05:50:44.844Z,21.95
2018-12-16T05:51:45.945Z,21.45
2018-12-16T05:52:47.070Z,21.46
2018-12-16T05:53:48.671Z,21.94
2018-12-16T05:54:50.169Z,21.53
2018-12-16T05:55:51.293Z,21.56
2018-12-16T05:56:52.435Z,21.28
2018-12-16T05:57:53.829Z,21.91
2018-12-16T05:58:54.956Z,21.69
2018-12-16T05:59:56.069Z,21.89
2018-12-16T06:00:57.207Z,21.92
2018-12-16T06:01:58.342Z,21.39
2018-12-16T06:02:59.881Z,21.45
2018-12-16T06:04:01.008Z,21.74
2018-12-16T06:05:02.271Z,21.68
2018-12-16T06:06:03.407Z,21.16
2018-12-16T06:07:04.523Z,21.54
2018-12-16T06:08:06.058Z,21.23
2018-12-16T06:09:07.221Z,21.73
2018-12-16T06:10:08.605Z,21.47
2018-12-16T06:11:09.746Z,21.56
2018-12-16T06:12:10.873Z,21.13
2018-12-16T06:13:12.345Z,21.72
2018-12-16T06:14:13.457Z,21.62
2018-12-16T06:15:14.610Z,21.82
2018-12-16T06:16:15.733Z,21.83
2018-12-16T06:17:16.861Z,21.34
2018-12-16T06:18:18.318Z,21.30
2018-12-16T06:19:19.442Z,21.88
2018-12-16T06:20:20.577Z,21.17
2018-12-16T06:21:21.689Z,21.37
2018-12-16T06:22:22.802Z,21.83
2018-12-16T06:23:24.297Z,21.75
2018-12-16T06:24:25.445Z,21.28
2018-12-16T06:25:26.683Z,21.08
2018-12-16T06:26:27.810Z,21.79
2018-12-16T06:27:28.945Z,21.69
2018-12-16T06:28:30.346Z,21.36
2018-12-16T06:29:31.512Z,20.93
2018-12-16T06:30:39.637Z,21.62
2018-12-16T06:31:40.769Z,21.25
2018-12-16T06:32:41.914Z,21.23
2018-12-16T06:33:43.408Z,21.35
2018-12-16T06:34:44.510Z,21.44
2018-12-16T06:35:45.637Z,21.68
2018-12-16T06:36:46.753Z,21.65
2018-12-16T06:37:54.878Z,21.39
2018-12-16T06:38:56.347Z,21.26
2018-12-16T06:39:57.459Z,21.49
2018-12-16T06:40:58.583Z,21.63
2018-12-16T06:41:59.697Z,21.26
2018-12-16T06:43:00.825Z,21.65
2018-12-16T06:44:01.949Z,21.65
2018-12-16T06:45:03.911Z,21.82
2018-12-16T06:46:05.054Z,21.54
2018-12-16T06:47:06.181Z,21.90
2018-12-16T06:48:07.320Z,21.74
2018-12-16T06:49:08.814Z,21.54
2018-12-16T06:50:09.953Z,21.54
2018-12-16T06:51:11.081Z,21.36
2018-12-16T06:52:12.217Z,21.58
2018-12-16T06:53:13.357Z,21.47
2018-12-16T06:54:14.881Z,21.88
2018-12-16T06:55:16.009Z,21.94
2018-12-16T06:56:17.120Z,21.88
2018-12-16T06:57:18.257Z,21.59
2018-12-16T06:58:19.377Z,21.86
2018-12-16T06:59:20.764Z,21.30
2018-12-16T07:00:21.897Z,21.92
2018-12-16T07:01:23.138Z,21.93
2018-12-16T07:02:24.265Z,21.61
2018-12-16T07:03:25.373Z,21.51
2018-12-16T07:04:26.944Z,21.37
2018-12-16T07:05:28.082Z,21.82
2018-12-16T07:06:29.213Z,21.53
2018-12-16T07:07:30.334Z,21.71
2018-12-16T07:08:31.437Z,21.80
2018-12-16T07:09:32.924Z,21.46
2018-12-16T07:10:34.053Z,21.46
2018-12-16T07:11:35.232Z,21.42
2018-12-16T07:12:36.346Z,21.50
2018-12-16T07:13:37.453Z,21.30
2018-12-16T07:14:38.874Z,21.47
2018-12-16T07:15:40.015Z,21.35
2018-12-16T07:16:41.246Z,21.71
2018-12-16T07:17:42.409Z,21.82
2018-12-16T07:18:43.522Z,21.88
2018-12-16T07:19:44.730Z,21.17
2018-12-16T07:20:45.873Z,21.88
2018-12-16T07:21:47.057Z,21.63
2018-12-16T07:22:48.307Z,21.75
2018-12-16T07:23:49.442Z,21.73
2018-12-16T07:24:50.833Z,21.42
2018-12-16T07:25:51.986Z,21.65
2018-12-16T07:26:53.101Z,21.65
2018-12-16T07:27:54.251Z,21.87
2018-12-16T07:28:55.480Z,21.35
2018-12-16T07:29:56.723Z,21.74
2018-12-16T07:30:57.853Z,21.72
2018-12-16T07:32:05.973Z,21.67
2018-12-16T07:33:07.113Z,21.49
2018-12-16T07:34:08.265Z,21.55
2018-12-16T07:35:09.398Z,21.71
2018-12-16T07:36:10.636Z,21.16
2018-12-16T07:37:18.665Z,21.33
2018-12-16T07:38:14.930Z,20.95
2018-12-16T07:39:23.121Z,21.06
2018-12-16T07:40:24.629Z,21.22
2018-12-16T07:41:25.786Z,21.46
2018-12-16T07:42:27.027Z,21.49
2018-12-16T07:43:28.149Z,21.11
2018-12-16T07:44:29.274Z,21.43
2018-12-16T07:45:30.722Z,21.20
2018-12-16T07:46:31.861Z,21.52
2018-12-16T07:47:33.006Z,21.46
2018-12-16T07:48:34.281Z,21.43
2018-12-16T07:49:35.390Z,21.42
2018-12-16T07:50:36.836Z,20.83
2018-12-16T07:51:38.089Z,21.03
2018-12-16T07:52:39.326Z,21.39
2018-12-16T07:53:40.458Z,21.07
2018-12-16T07:54:41.594Z,20.93
2018-12-16T07:55:42.982Z,21.47
2018-12-16T07:56:44.114Z,21.22
2018-12-16T07:57:45.285Z,21.29
2018-12-16T07:58:46.512Z,21.07
2018-12-16T07:59:47.633Z,21.05
2018-12-16T08:00:49.093Z,21.22
2018-12-16T08:01:50.260Z,21.15
2018-12-16T08:02:51.492Z,21.29
2018-12-16T08:03:52.716Z,21.56
2018-12-16T08:04:53.837Z,21.06
2018-12-16T08:05:55.254Z,21.00
2018-12-16T08:06:56.485Z,21.06
2018-12-16T08:07:57.621Z,21.18
2018-12-16T08:08:58.733Z,21.21
2018-12-16T08:09:59.881Z,21.10
2018-12-16T08:11:01.289Z,21.16
2018-12-16T08:12:02.418Z,21.44
2018-12-16T08:13:03.529Z,21.55
2018-12-16T08:14:04.661Z,21.56
2018-12-16T08:15:06.046Z,21.24
2018-12-16T08:16:07.450Z,21.68
2018-12-16T08:17:08.573Z,21.21
2018-12-16T08:18:09.677Z,21.51
2018-12-16T08:19:10.838Z,21.63
2018-12-16T08:20:11.970Z,21.55
2018-12-16T08:21:13.501Z,21.20
2018-12-16T08:22:14.609Z,21.25
2018-12-16T08:23:15.736Z,21.15
2018-12-16T08:24:22.915Z,21.06
2018-12-16T08:25:20.030Z,21.46
2018-12-16T08:26:21.157Z,21.45
2018-12-16T08:27:22.292Z,21.46
2018-12-16T08:28:23.413Z,21.18
2018-12-16T08:29:24.526Z,21.79
2018-12-16T08:30:25.662Z,21.33
2018-12-16T08:31:27.084Z,21.65
2018-12-16T08:32:28.194Z,21.54
2018-12-16T08:33:29.323Z,21.28
2018-12-16T08:34:30.432Z,21.72
2018-12-16T08:35:31.541Z,21.64
2018-12-16T08:36:34.445Z,21.28
2018-12-16T08:37:35.577Z,21.43
2018-12-16T08:38:36.783Z,21.29
2018-12-16T08:39:37.893Z,21.37
2018-12-16T08:40:39.022Z,21.21
2018-12-16T08:41:40.444Z,21.38
2018-12-16T08:42:41.549Z,21.17
2018-12-16T08:43:42.670Z,21.51
2018-12-16T08:44:43.808Z,21.57
2018-12-16T08:45:44.929Z,21.31
2018-12-16T08:46:46.414Z,21.19
2018-12-16T08:47:47.521Z,21.86
2018-12-16T08:48:55.676Z,21.72
2018-12-16T08:49:56.794Z,21.43
2018-12-16T08:50:57.921Z,21.51
2018-12-16T08:51:59.345Z,21.44
2018-12-16T08:53:00.457Z,21.55
2018-12-16T08:54:01.578Z,21.87
2018-12-16T08:55:03.069Z,21.79
2018-12-16T08:56:11.154Z,21.45
2018-12-16T08:57:12.601Z,21.79
2018-12-16T08:58:13.710Z,21.80
2018-12-16T08:59:14.849Z,21.99
2018-12-16T09:00:15.976Z,21.57
2018-12-16T09:01:17.125Z,21.71
2018-12-16T09:02:18.686Z,22.02
2018-12-16T09:03:19.805Z,21.97
2018-12-16T09:04:21.276Z,21.90
2018-12-16T09:05:22.406Z,21.56
2018-12-16T09:06:23.537Z,21.97
2018-12-16T09:07:24.937Z,21.48
2018-12-16T09:08:26.076Z,21.47
2018-12-16T09:09:27.445Z,21.93
2018-12-16T09:10:34.044Z,21.64
2018-12-16T09:11:31.721Z,22.04
2018-12-16T09:12:33.145Z,21.74
2018-12-16T09:13:34.305Z,21.75
2018-12-16T09:14:35.461Z,21.81
2018-12-16T09:15:36.610Z,21.65
2018-12-16T09:16:37.733Z,22.09
2018-12-16T09:17:39.164Z,21.79
2018-12-16T09:18:40.275Z,21.83
2018-12-16T09:19:41.413Z,22.57
2018-12-16T09:20:42.565Z,22.14
2018-12-16T09:21:43.713Z,22.17
2018-12-16T09:22:44.982Z,22.29
2018-12-16T09:23:46.113Z,21.96
2018-12-16T09:24:47.258Z,22.29
2018-12-16T09:25:48.385Z,22.14
2018-12-16T09:26:49.545Z,22.22
2018-12-16T09:27:50.941Z,21.80
2018-12-16T09:28:52.066Z,21.77
2018-12-16T09:29:53.203Z,21.74
2018-12-16T09:30:58.042Z,21.80
2018-12-16T09:31:57.546Z,21.97
2018-12-16T09:32:59.026Z,22.01
2018-12-16T09:34:00.141Z,21.74
2018-12-16T09:35:01.277Z,21.62
2018-12-16T09:36:02.401Z,21.92
2018-12-16T09:37:03.554Z,21.75
2018-12-16T09:38:05.005Z,22.01
2018-12-16T09:39:06.273Z,22.31
2018-12-16T09:40:07.494Z,21.55
2018-12-16T09:41:08.746Z,21.96
2018-12-16T09:42:16.857Z,21.96
2018-12-16T09:43:18.268Z,21.62
2018-12-16T09:44:19.398Z,21.89
2018-12-16T09:45:20.519Z,21.84
2018-12-16T09:46:21.642Z,21.54
2018-12-16T09:47:22.900Z,21.52
2018-12-16T09:48:24.318Z,21.62
2018-12-16T09:49:25.463Z,21.44
2018-12-16T09:50:26.690Z,21.65
2018-12-16T09:51:27.825Z,21.93
2018-12-16T09:52:28.966Z,22.17
2018-12-16T09:53:30.356Z,22.02
2018-12-16T09:54:31.481Z,21.60
2018-12-16T09:55:32.626Z,22.06
2018-12-16T09:56:33.933Z,22.14
2018-12-16T09:57:35.082Z,22.19
2018-12-16T09:58:36.242Z,22.14
2018-12-16T09:59:37.361Z,22.09
2018-12-16T10:00:38.504Z,21.96
2018-12-16T10:01:39.630Z,22.38
2018-12-16T10:02:40.756Z,22.10
2018-12-16T10:03:41.926Z,22.12
2018-12-16T10:04:43.063Z,21.97
2018-12-16T10:05:44.222Z,21.60
2018-12-16T10:06:45.348Z,22.07
2018-12-16T10:07:46.466Z,22.03
2018-12-16T10:08:47.625Z,21.82
2018-12-16T10:09:48.758Z,21.67
2018-12-16T10:10:49.958Z,21.74
2018-12-16T10:11:51.090Z,21.62
2018-12-16T10:12:52.205Z,21.46
2018-12-16T10:13:53.372Z,21.75
2018-12-16T10:14:54.517Z,21.42
2018-12-16T10:15:55.684Z,21.72
2018-12-16T10:16:56.834Z,21.47
2018-12-16T10:17:57.961Z,21.94
2018-12-16T10:18:59.069Z,21.62
2018-12-16T10:20:00.217Z,22.15
2018-12-16T10:21:01.353Z,21.93
2018-12-16T10:22:02.485Z,21.68
2018-12-16T10:23:03.619Z,21.67
2018-12-16T10:24:04.813Z,22.04
2018-12-16T10:25:06.093Z,22.03
2018-12-16T10:26:07.223Z,22.02
2018-12-16T10:27:08.353Z,21.55
2018-12-16T10:28:09.477Z,21.64
2018-12-16T10:29:10.620Z,21.44
2018-12-16T10:30:11.762Z,21.51
2018-12-16T10:31:12.998Z,21.84
2018-12-16T10:32:14.121Z,21.51
2018-12-16T10:33:15.261Z,21.97
2018-12-16T10:34:16.456Z,21.57
2018-12-16T10:35:17.721Z,21.45
2018-12-16T10:36:18.851Z,21.81
2018-12-16T10:37:19.969Z,21.52
2018-12-16T10:38:21.095Z,21.31
2018-12-16T10:39:22.237Z,21.38
2018-12-16T10:40:23.385Z,21.44
2018-12-16T10:41:24.535Z,21.27
2018-12-16T10:42:25.662Z,21.22
2018-12-16T10:43:26.793Z,21.58
2018-12-16T10:44:27.968Z,21.31
2018-12-16T10:45:29.101Z,20.98
2018-12-16T10:46:30.243Z,21.38
2018-12-16T10:47:31.400Z,21.40
2018-12-16T10:48:32.538Z,21.22
2018-12-16T10:49:33.701Z,21.31
2018-12-16T10:50:34.869Z,21.14
2018-12-16T10:51:36.037Z,21.28
2018-12-16T10:52:37.189Z,21.24
2018-12-16T10:53:38.338Z,21.18
2018-12-16T10:54:39.525Z,21.37
2018-12-16T10:55:40.660Z,21.28
2018-12-16T10:56:41.793Z,21.66
2018-12-16T10:57:42.917Z,21.68
2018-12-16T10:58:44.044Z,21.10
2018-12-16T10:59:45.221Z,21.22
2018-12-16T11:00:52.366Z,21.21
2018-12-16T11:01:53.521Z,20.96
2018-12-16T11:02:54.671Z,21.62
2018-12-16T11:03:55.917Z,21.25
2018-12-16T11:04:57.069Z,21.26
2018-12-16T11:05:58.198Z,21.76
2018-12-16T11:06:59.574Z,21.42
2018-12-16T11:08:00.690Z,21.64
2018-12-16T11:09:01.909Z,21.50
2018-12-16T11:10:03.309Z,21.69
2018-12-16T11:11:04.449Z,21.19
2018-12-16T11:12:05.809Z,21.64
2018-12-16T11:13:07.375Z,21.32
2018-12-16T11:14:08.530Z,21.88
2018-12-16T11:15:09.705Z,21.19
2018-12-16T11:16:10.857Z,21.50
2018-12-16T11:17:12.003Z,21.53
2018-12-16T11:18:13.149Z,21.66
2018-12-16T11:19:14.284Z,21.51
2018-12-16T11:20:15.465Z,21.33
2018-12-16T11:21:16.622Z,21.73
2018-12-16T11:22:17.793Z,21.13
2018-12-16T11:23:18.905Z,21.30
2018-12-16T11:24:20.069Z,21.28
2018-12-16T11:25:21.226Z,21.39
2018-12-16T11:26:22.361Z,21.55
2018-12-16T11:27:23.493Z,21.69
2018-12-16T11:28:24.605Z,21.48
2018-12-16T11:29:25.731Z,21.41
2018-12-16T11:30:27.013Z,21.22
2018-12-16T11:31:28.125Z,21.51
2018-12-16T11:32:29.269Z,21.75
2018-12-16T11:33:30.433Z,21.30
2018-12-16T11:34:31.537Z,21.65
2018-12-16T11:35:39.581Z,21.40
2018-12-16T11:36:40.709Z,21.40
2018-12-16T11:37:41.825Z,21.40
2018-12-16T11:38:42.950Z,21.77
2018-12-16T11:39:44.079Z,21.52
2018-12-16T11:40:45.265Z,21.36
2018-12-16T11:41:46.385Z,21.73
2018-12-16T11:42:47.525Z,21.82
2018-12-16T11:43:48.641Z,21.42
2018-12-16T11:44:49.750Z,21.38
2018-12-16T11:45:50.962Z,21.91
2018-12-16T11:46:52.125Z,21.42
2018-12-16T11:47:53.370Z,22.13
2018-12-16T11:48:54.494Z,21.83
2018-12-16T11:49:55.624Z,22.11
2018-12-16T11:50:56.756Z,22.18
2018-12-16T11:51:57.880Z,21.77
2018-12-16T11:52:59.011Z,22.18
2018-12-16T11:54:00.117Z,22.20
2018-12-16T11:55:01.253Z,22.19
2018-12-16T11:56:02.437Z,22.14
2018-12-16T11:57:03.562Z,21.96
2018-12-16T11:58:05.569Z,22.27
2018-12-16T11:59:06.701Z,22.15
2018-12-16T12:00:08.118Z,22.17
2018-12-16T12:01:09.269Z,21.79
2018-12-16T12:02:10.391Z,22.08
2018-12-16T12:03:11.513Z,21.92
2018-12-16T12:04:12.658Z,22.17
2018-12-16T12:05:13.809Z,22.18
2018-12-16T12:06:14.977Z,22.28
2018-12-16T12:07:16.090Z,22.11
2018-12-16T12:08:17.209Z,22.20
2018-12-16T12:09:18.341Z,21.98
2018-12-16T12:10:19.454Z,22.19
2018-12-16T12:11:20.619Z,22.03
2018-12-16T12:12:21.737Z,21.68
2018-12-16T12:13:22.865Z,21.88
2018-12-16T12:14:23.990Z,22.22
2018-12-16T12:15:25.109Z,21.85
2018-12-16T12:16:26.249Z,22.10
2018-12-16T12:17:27.421Z,22.25
2018-12-16T12:18:28.533Z,22.21
2018-12-16T12:19:33.722Z,21.79
2018-12-16T12:20:34.878Z,21.84
2018-12-16T12:21:36.041Z,22.07
2018-12-16T12:22:37.173Z,22.10
2018-12-16T12:23:38.293Z,22.28
2018-12-16T12:24:39.454Z,21.87
2018-12-16T12:25:40.597Z,21.89
2018-12-16T12:26:41.749Z,22.29
2018-12-16T12:27:42.882Z,22.13
2018-12-16T12:28:50.990Z,21.92
2018-12-16T12:29:52.107Z,22.27
2018-12-16T12:30:53.357Z,22.34
2018-12-16T12:31:54.503Z,22.37
2018-12-16T12:32:55.625Z,21.96
2018-12-16T12:33:56.738Z,22.37
2018-12-16T12:34:57.873Z,22.38
2018-12-16T12:35:58.997Z,22.22
2018-12-16T12:37:00.134Z,22.47
2018-12-16T12:38:01.253Z,22.30
2018-12-16T12:39:04.125Z,22.01
2018-12-16T12:40:05.925Z,22.02
2018-12-16T12:41:07.058Z,22.49
2018-12-16T12:42:08.181Z,22.38
2018-12-16T12:43:09.293Z,22.42
2018-12-16T12:44:10.425Z,22.04
2018-12-16T12:45:11.710Z,22.08
2018-12-16T12:46:12.867Z,22.22
2018-12-16T12:47:14.047Z,22.28
2018-12-16T12:48:15.173Z,21.85
2018-12-16T12:49:16.321Z,22.49
2018-12-16T12:50:17.438Z,22.67
2018-12-16T12:51:18.576Z,22.42
2018-12-16T12:52:19.717Z,22.38
2018-12-16T12:53:20.834Z,22.37
2018-12-16T12:54:21.957Z,22.49
2018-12-16T12:55:26.839Z,22.84
2018-12-16T12:56:26.238Z,22.61
2018-12-16T12:57:27.387Z,22.48
2018-12-16T12:58:28.533Z,22.92
2018-12-16T12:59:29.669Z,22.83
2018-12-16T13:00:30.822Z,22.41
2018-12-16T13:01:31.974Z,22.66
2018-12-16T13:02:33.109Z,22.78
2018-12-16T13:03:34.318Z,22.54
2018-12-16T13:04:35.450Z,22.43
2018-12-16T13:05:37.043Z,22.36
2018-12-16T13:06:38.470Z,22.64
2018-12-16T13:07:39.588Z,22.35
2018-12-16T13:08:40.794Z,22.28
2018-12-16T13:09:41.933Z,22.79
2018-12-16T13:10:43.133Z,22.39